Time;durP1;ratioP1;P1;durP2;ratioP2;P2;SDS_P1;SDS_P2;PMS_P1;PMS_P2;Temp;Humidity;BMP_temperature;BMP_pressure;BME280_temperature;BME280_humidity;BME280_pressure;Samples;Min_cycle;Max_cycle;Signal;HPM_P1;HPM_P2
2023/03/02 00:01:48;;;;;;;0.00;0.00;;;;;;;9.76;54.95;102415.75;7351654;19;20018;-55
2023/03/02 00:04:19;;;;;;;0.00;0.00;;;;;;;9.88;55.39;102445.44;7346205;19;20018;-54
2023/03/02 00:06:47;;;;;;;0.00;0.00;;;;;;;9.82;55.56;102439.28;7356101;19;20989;-56
2023/03/02 00:09:12;;;;;;;0.00;0.00;;;;;;;9.84;55.58;102438.44;7352358;19;20015;-55
2023/03/02 00:11:38;;;;;;;0.00;0.00;;;;;;;9.83;55.48;102441.00;7354530;19;20041;-55
2023/03/02 00:14:05;;;;;;;0.00;0.00;;;;;;;9.85;55.69;102439.31;7350749;19;20482;-56
2023/03/02 00:16:30;;;;;;;0.00;0.00;;;;;;;9.84;55.37;102440.19;7355330;19;20042;-54
2023/03/02 00:18:56;;;;;;;0.03;0.03;;;;;;;9.74;55.48;102427.91;7349015;19;21847;-55
2023/03/02 00:21:23;;;;;;;0.00;0.00;;;;;;;9.82;55.56;102439.28;7353708;19;20043;-56
2023/03/02 00:23:49;;;;;;;0.00;0.00;;;;;;;9.66;55.88;102411.31;7353739;19;20486;-55
2023/03/02 00:26:14;;;;;;;0.00;0.00;;;;;;;9.80;55.82;102435.78;7352045;19;20010;-56
2023/03/02 00:28:40;;;;;;;0.00;0.00;;;;;;;9.84;55.69;102437.56;7352151;19;20090;-56
2023/03/02 00:31:05;;;;;;;0.00;0.00;;;;;;;9.84;55.99;102430.63;7348373;19;21006;-56
2023/03/02 00:33:31;;;;;;;0.00;0.00;;;;;;;9.79;56.09;102421.88;7353290;19;20796;-55
2023/03/02 00:35:57;;;;;;;0.00;0.00;;;;;;;9.84;56.26;102421.91;7350419;19;20118;-54
2023/03/02 00:38:22;;;;;;;0.00;0.00;;;;;;;9.85;56.52;102434.09;7352772;19;20010;-55
2023/03/02 00:40:49;;;;;;;0.00;0.00;;;;;;;9.85;56.16;102429.75;7354341;19;20486;-55
2023/03/02 00:43:15;;;;;;;0.00;0.00;;;;;;;9.86;56.13;102422.78;7350402;19;20019;-53
2023/03/02 00:45:41;;;;;;;0.00;0.00;;;;;;;9.86;56.21;102417.56;7350880;19;20014;-55
2023/03/02 00:48:07;;;;;;;0.00;0.00;;;;;;;9.85;56.64;102419.31;7352292;19;20017;-56
2023/03/02 00:50:33;;;;;;;0.00;0.00;;;;;;;9.26;56.40;102322.31;7353053;19;20014;-55
2023/03/02 00:52:59;;;;;;;0.00;0.00;;;;;;;9.81;56.67;102403.63;7351575;19;20034;-55
2023/03/02 00:55:25;;;;;;;0.10;0.10;;;;;;;9.86;56.67;102422.78;7351520;19;20046;-55
2023/03/02 00:57:54;;;;;;;0.00;0.00;;;;;;;9.83;56.60;102409.72;7350257;19;20744;-55
2023/03/02 01:00:23;;;;;;;0.00;0.00;;;;;;;9.89;56.45;102415.00;7350647;19;20010;-55
2023/03/02 01:02:49;;;;;;;0.00;0.00;;;;;;;9.87;56.69;102414.09;7353417;19;20015;-55
2023/03/02 01:05:15;;;;;;;0.08;0.08;;;;;;;9.87;56.79;102411.47;7353239;19;20017;-56
2023/03/02 01:07:41;;;;;;;0.00;0.00;;;;;;;9.85;56.88;102397.56;7347499;19;20018;-56
2023/03/02 01:10:07;;;;;;;0.03;0.03;;;;;;;9.88;56.57;102415.84;7350140;19;20741;-55
2023/03/02 01:12:33;;;;;;;0.05;0.05;;;;;;;9.86;56.69;102404.53;7348169;19;20030;-57
2023/03/02 01:14:59;;;;;;;0.00;0.00;;;;;;;9.84;56.81;102401.03;7351408;19;20053;-56
2023/03/02 01:17:24;;;;;;;0.00;0.00;;;;;;;9.82;57.05;102393.19;7349994;19;20038;-55
2023/03/02 01:19:51;;;;;;;0.00;0.00;;;;;;;9.78;57.22;102388.81;7351231;19;20816;-56
2023/03/02 01:22:17;;;;;;;0.00;0.00;;;;;;;9.86;57.15;102404.53;7350644;19;20902;-57
2023/03/02 01:24:42;;;;;;;0.00;0.00;;;;;;;9.85;56.94;102397.56;7352898;19;20523;-54
2023/03/02 01:27:08;;;;;;;0.00;0.00;;;;;;;9.87;56.96;102395.81;7350907;19;20006;-56
2023/03/02 01:29:34;;;;;;;0.00;0.00;;;;;;;9.85;57.27;102394.97;7353518;19;20013;-56
2023/03/02 01:31:59;;;;;;;0.00;0.00;;;;;;;9.85;57.40;102389.75;7351489;19;20011;-56
2023/03/02 01:34:25;;;;;;;0.00;0.00;;;;;;;9.80;57.48;102378.41;7352093;19;20018;-56
2023/03/02 01:36:50;;;;;;;0.03;0.03;;;;;;;9.84;57.54;102390.59;7353160;19;21133;-55
2023/03/02 01:39:16;;;;;;;0.00;0.00;;;;;;;9.47;57.25;102319.88;7347421;19;20016;-55
2023/03/02 01:41:43;;;;;;;0.00;0.00;;;;;;;9.87;57.69;102388.00;7353881;19;20041;-56
2023/03/02 01:44:41;;;;;;;0.00;0.00;;;;;;;9.89;56.58;102378.47;7347650;19;20014;-56
2023/03/02 01:47:16;;;;;;;0.08;0.08;;;;;;;9.87;57.61;102381.03;7247518;19;2004392;-56
2023/03/02 01:49:50;;;;;;;0.00;0.00;;;;;;;9.81;57.30;102375.78;7352642;19;20580;-55
2023/03/02 01:52:16;;;;;;;0.10;0.10;;;;;;;9.84;57.72;102370.59;7347951;19;20013;-56
2023/03/02 01:54:48;;;;;;;0.00;0.00;;;;;;;9.85;57.74;102366.25;7350627;19;20068;-56
2023/03/02 01:57:18;;;;;;;0.00;0.00;;;;;;;9.51;57.57;102323.38;7350173;19;20007;-56
2023/03/02 01:59:44;;;;;;;0.00;0.00;;;;;;;9.84;58.00;102365.38;7350400;19;20048;-54
2023/03/02 02:02:11;;;;;;;0.00;0.00;;;;;;;9.85;57.81;102366.25;7351146;19;20434;-55
2023/03/02 02:04:41;;;;;;;0.00;0.00;;;;;;;9.70;57.65;102329.63;7349222;19;20025;-56
2023/03/02 02:07:08;;;;;;;0.00;0.00;;;;;;;9.84;58.20;102354.09;7349616;19;20026;-57
2023/03/02 02:09:39;;;;;;;0.00;0.00;;;;;;;9.85;57.89;102353.22;7348828;19;20490;-55
2023/03/02 02:12:04;;;;;;;0.00;0.00;;;;;;;9.83;58.00;102344.47;7350596;19;20098;-54
2023/03/02 02:14:30;;;;;;;0.05;0.05;;;;;;;9.83;58.39;102341.88;7349375;19;20356;-56
2023/03/02 02:16:56;;;;;;;0.00;0.00;;;;;;;9.72;57.94;102318.31;7351502;19;20021;-56
2023/03/02 02:19:40;;;;;;;0.00;0.00;;;;;;;9.86;57.59;102341.91;7349981;19;20033;-57
2023/03/02 02:22:06;;;;;;;0.00;0.00;;;;;;;9.78;58.60;102333.13;7349793;19;20021;-55
2023/03/02 02:24:48;;;;;;;0.00;0.00;;;;;;;9.79;57.94;102319.25;7349385;19;20025;-55
2023/03/02 02:27:14;;;;;;;0.00;0.00;;;;;;;9.80;58.61;102329.69;7348087;19;20832;-56
2023/03/02 02:29:47;;;;;;;0.00;0.00;;;;;;;9.83;57.96;102332.34;7346002;19;20074;-56
2023/03/02 02:32:16;;;;;;;0.00;0.00;;;;;;;9.83;58.54;102331.44;7348408;19;20015;-55
2023/03/02 02:34:55;;;;;;;0.00;0.00;;;;;;;9.85;58.11;102329.72;7348801;19;20623;-56
2023/03/02 02:37:23;;;;;;;0.03;0.03;;;;;;;9.82;58.97;102329.69;7349884;19;20015;-55
2023/03/02 02:39:49;;;;;;;0.00;0.00;;;;;;;9.76;58.93;102304.44;7344163;19;20014;-54
2023/03/02 02:42:18;;;;;;;0.00;0.00;;;;;;;9.84;58.69;102312.34;7350451;19;20007;-54
2023/03/02 02:44:44;;;;;;;0.00;0.00;;;;;;;9.79;58.50;102303.59;7345000;19;20125;-56
2023/03/02 02:47:17;;;;;;;0.00;0.00;;;;;;;9.85;58.38;102303.63;7348587;19;20007;-55
2023/03/02 02:49:42;;;;;;;0.00;0.00;;;;;;;9.84;58.86;102301.91;7348200;19;20022;-55
2023/03/02 02:52:12;;;;;;;0.00;0.00;;;;;;;9.85;58.82;102298.41;7346900;19;20002;-54
2023/03/02 02:54:38;;;;;;;0.03;0.03;;;;;;;9.71;58.77;102274.84;7349462;19;20030;-57
2023/03/02 02:57:05;;;;;;;0.00;0.00;;;;;;;9.80;58.47;102284.47;7350395;19;20668;-55
2023/03/02 02:59:35;;;;;;;0.00;0.00;;;;;;;9.74;58.73;102274.88;7341982;19;20046;-55
2023/03/02 03:02:01;;;;;;;0.00;0.00;;;;;;;9.85;58.64;102283.63;7348180;19;20770;-54
2023/03/02 03:04:29;;;;;;;0.00;0.00;;;;;;;9.88;59.01;102282.75;7344505;19;20075;-56
2023/03/02 03:07:02;;;;;;;0.10;0.10;;;;;;;9.88;59.19;102277.53;7350745;19;20014;-55
2023/03/02 03:09:28;;;;;;;0.10;0.10;;;;;;;9.87;59.25;102278.41;7351883;19;20481;-55
2023/03/02 03:12:00;;;;;;;0.00;0.00;;;;;;;9.88;59.24;102267.09;7351700;19;20609;-54
2023/03/02 03:14:38;;;;;;;0.10;0.10;;;;;;;9.91;58.21;102261.91;7347910;19;20046;-55
2023/03/02 03:17:11;;;;;;;0.00;0.00;;;;;;;9.88;59.03;102274.94;7352169;19;20557;-55
2023/03/02 03:19:38;;;;;;;0.00;0.00;;;;;;;9.82;59.37;102262.72;7348767;19;20599;-56
2023/03/02 03:22:04;;;;;;;0.00;0.00;;;;;;;9.80;59.46;102255.78;7351806;19;20018;-55
2023/03/02 03:24:32;;;;;;;0.00;0.00;;;;;;;9.90;59.33;102265.41;7347266;19;20035;-56
2023/03/02 03:26:59;;;;;;;0.00;0.00;;;;;;;9.76;59.23;102246.19;7351280;19;20007;-56
2023/03/02 03:29:26;;;;;;;0.00;0.00;;;;;;;9.88;59.62;102272.31;7348541;19;21575;-55
2023/03/02 03:31:54;;;;;;;0.03;0.03;;;;;;;9.88;59.33;102259.28;7351182;19;20017;-54
2023/03/02 03:34:20;;;;;;;0.08;0.08;;;;;;;9.87;59.42;102262.75;7350281;19;20011;-55
2023/03/02 03:36:46;;;;;;;0.00;0.00;;;;;;;9.87;59.74;102249.72;7349894;19;20045;-56
2023/03/02 03:39:13;;;;;;;0.08;0.08;;;;;;;9.88;59.35;102264.50;7349702;19;20050;-55
2023/03/02 03:41:39;;;;;;;0.00;0.00;;;;;;;9.87;59.40;102261.00;7348544;19;20121;-56
2023/03/02 03:44:04;;;;;;;0.00;0.00;;;;;;;9.78;59.74;102239.22;7347099;19;20006;-56
2023/03/02 03:46:30;;;;;;;0.10;0.10;;;;;;;9.82;60.00;102238.38;7358272;19;20026;-55
2023/03/02 03:48:56;;;;;;;0.00;0.00;;;;;;;9.88;59.50;102254.06;7356733;19;20014;-56
2023/03/02 03:51:22;;;;;;;0.00;0.00;;;;;;;9.88;59.70;102254.06;7352376;19;20009;-56
2023/03/02 03:54:09;;;;;;;0.00;0.00;;;;;;;9.84;60.13;102254.94;7355479;19;20013;-54
2023/03/02 03:56:36;;;;;;;0.00;0.00;;;;;;;9.86;59.68;102245.38;7356080;19;20010;-54
2023/03/02 03:59:06;;;;;;;0.00;0.00;;;;;;;9.87;59.82;102260.16;7355396;19;20738;-55
2023/03/02 04:02:02;;;;;;;0.00;0.00;;;;;;;9.88;58.64;102251.44;7353717;19;20018;-55
2023/03/02 04:04:33;;;;;;;0.00;0.00;;;;;;;9.81;60.04;102254.91;7231042;19;2004124;-55
2023/03/02 04:06:59;;;;;;;0.00;0.00;;;;;;;9.74;60.50;102258.34;7359183;19;20021;-54
2023/03/02 04:09:25;;;;;;;0.00;0.00;;;;;;;9.70;60.44;102256.59;7353268;19;20018;-54
2023/03/02 04:11:53;;;;;;;0.00;0.00;;;;;;;9.65;60.67;102247.88;7359239;19;20091;-53
2023/03/02 04:14:20;;;;;;;0.10;0.10;;;;;;;9.66;60.81;102258.28;7354636;19;20026;-57
2023/03/02 04:16:46;;;;;;;0.00;0.00;;;;;;;9.64;60.37;102249.59;7358607;19;20027;-55
2023/03/02 04:19:13;;;;;;;0.00;0.00;;;;;;;9.61;60.78;102253.03;7343573;19;20904;-55
2023/03/02 04:21:41;;;;;;;0.00;0.00;;;;;;;9.46;60.50;102226.00;7345550;19;20515;-55
2023/03/02 04:24:08;;;;;;;0.00;0.00;;;;;;;9.56;60.72;102249.53;7349358;19;20727;-56
2023/03/02 04:26:35;;;;;;;0.00;0.00;;;;;;;9.57;60.46;102251.28;7351879;19;20023;-56
2023/03/02 04:29:00;;;;;;;0.00;0.00;;;;;;;9.57;60.68;102255.63;7350869;19;20041;-55
2023/03/02 04:31:26;;;;;;;0.00;0.00;;;;;;;9.54;60.62;102246.06;7356343;19;20053;-56
2023/03/02 04:33:51;;;;;;;0.00;0.00;;;;;;;9.52;60.86;102242.56;7344082;19;20953;-56
2023/03/02 04:36:18;;;;;;;0.00;0.00;;;;;;;9.54;60.56;102246.06;7351045;19;20351;-54
2023/03/02 04:38:44;;;;;;;0.00;0.00;;;;;;;9.55;61.01;102241.72;7346130;19;20006;-55
2023/03/02 04:41:09;;;;;;;0.00;0.00;;;;;;;9.55;61.06;102241.72;7355687;19;20808;-55
2023/03/02 04:43:35;;;;;;;0.00;0.00;;;;;;;9.55;60.41;102236.50;7351388;19;20010;-56
2023/03/02 04:46:00;;;;;;;0.00;0.00;;;;;;;9.41;60.75;102225.09;7351614;19;20007;-54
2023/03/02 04:48:26;;;;;;;0.00;0.00;;;;;;;9.49;60.62;102237.34;7355606;19;20021;-55
2023/03/02 04:50:51;;;;;;;0.00;0.00;;;;;;;9.49;60.65;102236.47;7355157;19;20030;-56
2023/03/02 04:53:17;;;;;;;0.00;0.00;;;;;;;9.52;60.46;102234.72;7354519;19;20614;-55
2023/03/02 04:55:42;;;;;;;0.00;0.00;;;;;;;9.51;60.85;102230.38;7351072;19;20018;-54
2023/03/02 04:58:07;;;;;;;0.00;0.00;;;;;;;9.53;60.53;102233.00;7348390;19;20006;-54
2023/03/02 05:00:34;;;;;;;0.00;0.00;;;;;;;9.48;60.35;102225.16;7354589;19;20002;-54
2023/03/02 05:03:00;;;;;;;0.00;0.00;;;;;;;9.48;60.36;102221.66;7351337;19;20011;-54
2023/03/02 05:05:26;;;;;;;0.00;0.00;;;;;;;9.53;60.01;102228.69;7355118;19;20565;-55
2023/03/02 05:07:52;;;;;;;0.00;0.00;;;;;;;9.39;60.08;102214.66;7352411;19;20078;-56
2023/03/02 05:10:18;;;;;;;0.00;0.00;;;;;;;9.50;60.02;102233.00;7355051;19;20010;-55
2023/03/02 05:12:53;;;;;;;0.00;0.00;;;;;;;9.50;60.20;102233.00;7353390;19;20031;-55
2023/03/02 05:15:29;;;;;;;0.00;0.00;;;;;;;9.48;59.59;102230.38;7351679;19;20010;-54
2023/03/02 05:17:54;;;;;;;0.00;0.00;;;;;;;9.47;60.47;102233.81;7355850;19;20034;-56
2023/03/02 05:20:20;;;;;;;0.00;0.00;;;;;;;9.44;60.37;102228.63;7346974;19;20014;-54
2023/03/02 05:22:46;;;;;;;0.00;0.00;;;;;;;9.31;59.85;102211.13;7353863;19;20019;-56
2023/03/02 05:25:12;;;;;;;0.05;0.05;;;;;;;9.05;60.41;102162.31;7350651;19;20085;-56
2023/03/02 05:27:37;;;;;;;0.00;0.00;;;;;;;9.37;60.41;102219.00;7352535;19;20010;-55
2023/03/02 05:30:04;;;;;;;0.00;0.00;;;;;;;9.36;60.44;102228.53;7352407;19;20006;-56
2023/03/02 05:32:30;;;;;;;0.00;0.00;;;;;;;9.17;60.40;102191.91;7354500;19;20825;-55
2023/03/02 05:34:55;;;;;;;0.00;0.00;;;;;;;9.25;60.55;102211.09;7348807;19;20456;-55
2023/03/02 05:37:20;;;;;;;0.00;0.00;;;;;;;9.31;60.30;102218.94;7348492;19;20078;-56
2023/03/02 05:39:46;;;;;;;0.00;0.00;;;;;;;9.30;60.68;102212.00;7350244;19;20805;-56
2023/03/02 05:42:11;;;;;;;0.10;0.10;;;;;;;8.92;60.32;102150.06;7354225;19;20022;-56
2023/03/02 05:44:37;;;;;;;0.00;0.00;;;;;;;9.26;60.24;102208.50;7348477;19;20335;-55
2023/03/02 05:47:02;;;;;;;0.00;0.00;;;;;;;9.26;60.25;102205.00;7353227;19;20873;-54
2023/03/02 05:49:27;;;;;;;0.10;0.10;;;;;;;9.15;60.22;102188.44;7350872;19;20014;-56
2023/03/02 05:51:53;;;;;;;0.00;0.00;;;;;;;9.27;60.36;102210.22;7351480;19;20010;-55
2023/03/02 05:54:18;;;;;;;0.00;0.00;;;;;;;9.24;60.29;102199.81;7354261;19;20048;-55
2023/03/02 05:56:44;;;;;;;0.00;0.00;;;;;;;9.25;60.45;102208.50;7353017;19;20870;-55
2023/03/02 05:59:09;;;;;;;0.00;0.00;;;;;;;9.18;60.24;102196.28;7349821;19;20042;-54
2023/03/02 06:01:35;;;;;;;0.00;0.00;;;;;;;9.23;60.48;102207.63;7353564;19;20873;-56
2023/03/02 06:04:01;;;;;;;0.00;0.00;;;;;;;9.20;60.30;102202.38;7351551;19;20014;-55
2023/03/02 06:06:26;;;;;;;0.00;0.00;;;;;;;9.18;60.46;102204.09;7351319;19;20082;-56
2023/03/02 06:08:52;;;;;;;0.00;0.00;;;;;;;9.13;60.17;102200.59;7354260;19;20010;-55
2023/03/02 06:11:17;;;;;;;0.00;0.00;;;;;;;9.10;60.38;102212.72;7352598;19;20047;-56
2023/03/02 06:13:42;;;;;;;0.00;0.00;;;;;;;8.92;60.29;102180.44;7350166;19;20128;-54
2023/03/02 06:16:08;;;;;;;0.00;0.00;;;;;;;9.03;60.33;102204.88;7351458;19;25275;-55
2023/03/02 06:18:34;;;;;;;0.00;0.00;;;;;;;8.96;60.02;102209.13;7350185;19;20077;-55
2023/03/02 06:20:59;;;;;;;0.00;0.00;;;;;;;8.72;60.23;102177.69;7353633;19;20007;-56
2023/03/02 06:23:25;;;;;;;0.00;0.00;;;;;;;8.83;59.92;102212.50;7350572;19;20024;-56
2023/03/02 06:25:50;;;;;;;0.00;0.00;;;;;;;8.75;60.09;102209.81;7349282;19;20014;-55
2023/03/02 06:28:18;;;;;;;0.00;0.00;;;;;;;8.72;60.38;102214.16;7347037;19;20035;-55
2023/03/02 06:30:47;;;;;;;0.00;0.00;;;;;;;8.47;60.18;102182.66;7353813;19;20014;-55
2023/03/02 06:33:14;;;;;;;0.00;0.00;;;;;;;8.62;60.39;102209.69;7336761;19;20359;-55
2023/03/02 06:35:39;;;;;;;0.00;0.00;;;;;;;8.52;60.18;102201.81;7351606;19;20011;-54
2023/03/02 06:38:05;;;;;;;0.00;0.00;;;;;;;8.48;60.51;102202.63;7349621;19;20593;-55
2023/03/02 06:40:30;;;;;;;0.00;0.00;;;;;;;8.43;60.48;102201.72;7351081;19;21014;-55
2023/03/02 06:42:59;;;;;;;0.03;0.03;;;;;;;8.42;60.28;102207.78;7352698;19;20010;-54
2023/03/02 06:45:24;;;;;;;0.00;0.00;;;;;;;8.38;60.18;102208.59;7345877;19;20011;-56
2023/03/02 06:47:49;;;;;;;0.00;0.00;;;;;;;8.34;60.49;102193.78;7349277;19;20025;-56
2023/03/02 06:50:15;;;;;;;0.00;0.00;;;;;;;8.31;60.54;102201.53;7353055;19;20344;-54
2023/03/02 06:52:40;;;;;;;0.10;0.10;;;;;;;8.29;60.20;102193.72;7346310;19;20030;-56
2023/03/02 06:55:06;;;;;;;0.00;0.00;;;;;;;8.28;60.31;102193.72;7352183;19;20052;-54
2023/03/02 06:57:35;;;;;;;0.00;0.00;;;;;;;8.30;60.36;102202.41;7346366;19;20403;-55
2023/03/02 07:00:16;;;;;;;0.00;0.00;;;;;;;8.29;60.74;102208.47;7343855;19;20034;-55
2023/03/02 07:02:43;;;;;;;0.05;0.05;;;;;;;8.28;60.95;102206.72;7349876;19;20011;-55
2023/03/02 07:05:09;;;;;;;0.00;0.00;;;;;;;8.27;60.89;102205.00;7349080;19;20039;-52
2023/03/02 07:07:35;;;;;;;0.03;0.03;;;;;;;8.27;60.92;102205.00;7352774;19;20014;-55
2023/03/02 07:10:01;;;;;;;0.00;0.00;;;;;;;8.28;60.90;102206.72;7347355;19;20029;-55
2023/03/02 07:12:26;;;;;;;0.00;0.00;;;;;;;8.21;60.77;102194.47;7351485;19;20327;-56
2023/03/02 07:14:51;;;;;;;0.10;0.10;;;;;;;8.20;60.75;102187.53;7344163;19;20031;-55
2023/03/02 07:17:17;;;;;;;0.00;0.00;;;;;;;8.35;60.71;102212.88;7353298;19;20011;-55
2023/03/02 07:19:42;;;;;;;0.00;0.00;;;;;;;8.36;60.84;102214.59;7356138;19;20015;-55
2023/03/02 07:22:08;;;;;;;0.00;0.00;;;;;;;8.33;60.85;102213.72;7356982;19;20014;-55
2023/03/02 07:24:33;;;;;;;0.00;0.00;;;;;;;8.36;60.93;102214.59;7353084;19;20085;-53
2023/03/02 07:26:59;;;;;;;0.00;0.00;;;;;;;8.38;61.02;102229.44;7359982;19;20014;-55
2023/03/02 07:29:24;;;;;;;0.03;0.03;;;;;;;8.37;61.28;102222.47;7354792;19;20053;-55
2023/03/02 07:31:55;;;;;;;0.00;0.00;;;;;;;8.36;60.87;102215.50;7356264;19;20007;-55
2023/03/02 07:34:22;;;;;;;0.00;0.00;;;;;;;8.30;61.12;102210.22;7357338;19;20002;-55
2023/03/02 07:36:47;;;;;;;0.10;0.10;;;;;;;8.41;60.85;102228.56;7358216;19;20031;-56
2023/03/02 07:39:13;;;;;;;0.00;0.00;;;;;;;8.41;60.93;102226.84;7336904;19;21385;-56
2023/03/02 07:41:38;;;;;;;0.00;0.00;;;;;;;8.45;61.15;102241.63;7357692;19;20060;-56
2023/03/02 07:44:04;;;;;;;0.00;0.00;;;;;;;8.47;61.34;102237.34;7354187;19;20010;-55
2023/03/02 07:46:29;;;;;;;0.00;0.00;;;;;;;8.51;61.00;102241.69;7358949;19;20007;-55
2023/03/02 07:48:54;;;;;;;0.00;0.00;;;;;;;8.50;61.33;102234.75;7357447;19;20023;-56
2023/03/02 07:51:20;;;;;;;0.00;0.00;;;;;;;8.54;61.35;102241.75;7360755;19;20074;-56
2023/03/02 07:53:45;;;;;;;0.00;0.00;;;;;;;8.60;61.42;102240.06;7356270;19;20018;-56
2023/03/02 07:56:11;;;;;;;0.00;0.00;;;;;;;8.64;61.33;102249.66;7355851;19;20077;-54
2023/03/02 07:58:36;;;;;;;0.00;0.00;;;;;;;8.66;61.33;102245.31;7356596;19;20047;-54
2023/03/02 08:01:02;;;;;;;0.00;0.00;;;;;;;8.47;61.77;102208.72;7356937;19;20018;-55
2023/03/02 08:03:28;;;;;;;0.00;0.00;;;;;;;8.71;61.78;102243.63;7358713;19;20011;-56
2023/03/02 08:05:53;;;;;;;0.00;0.00;;;;;;;8.72;61.74;102246.28;7350560;19;20106;-56
2023/03/02 08:08:18;;;;;;;0.00;0.00;;;;;;;8.81;61.34;102251.56;7363272;19;20009;-57
2023/03/02 08:10:44;;;;;;;0.00;0.00;;;;;;;8.85;61.79;102257.66;7346795;19;20468;-56
2023/03/02 08:13:09;;;;;;;0.00;0.00;;;;;;;8.84;61.09;102250.72;7351662;19;20013;-57
2023/03/02 08:15:35;;;;;;;0.10;0.10;;;;;;;8.94;61.12;102262.09;7345033;19;20864;-56
2023/03/02 08:18:00;;;;;;;0.00;0.00;;;;;;;8.92;61.03;102251.69;7355630;19;20451;-56
2023/03/02 08:20:26;;;;;;;0.10;0.10;;;;;;;8.98;61.04;102254.34;7354535;19;20014;-56
2023/03/02 08:22:51;;;;;;;0.00;0.00;;;;;;;8.98;60.97;102249.13;7360889;19;20014;-56
2023/03/02 08:25:17;;;;;;;0.00;0.00;;;;;;;9.10;61.25;102264.84;7358284;19;20010;-55
2023/03/02 08:27:44;;;;;;;0.00;0.00;;;;;;;9.16;60.79;102273.56;7358989;19;20057;-58
2023/03/02 08:30:11;;;;;;;0.00;0.00;;;;;;;9.21;60.97;102271.88;7348932;19;20006;-58
2023/03/02 08:32:37;;;;;;;0.00;0.00;;;;;;;9.23;61.17;102270.19;7359091;19;20018;-59
2023/03/02 08:35:03;;;;;;;0.00;0.00;;;;;;;9.29;60.67;102270.22;7354022;19;20033;-58
2023/03/02 08:37:28;;;;;;;0.00;0.00;;;;;;;9.16;60.86;102248.38;7359863;19;20062;-57
2023/03/02 08:39:54;;;;;;;0.00;0.00;;;;;;;9.35;60.92;102267.66;7354030;19;20014;-55
2023/03/02 08:42:19;;;;;;;0.10;0.10;;;;;;;9.38;61.06;102267.69;7353722;19;20034;-56
2023/03/02 08:44:45;;;;;;;0.00;0.00;;;;;;;9.42;60.73;102277.25;7348366;19;20711;-55
2023/03/02 08:47:10;;;;;;;0.00;0.00;;;;;;;9.45;61.08;102272.06;7343785;19;20010;-56
2023/03/02 08:49:39;;;;;;;0.00;0.00;;;;;;;9.51;61.10;102266.88;7348107;19;20014;-56
2023/03/02 08:52:04;;;;;;;0.00;0.00;;;;;;;9.43;61.15;102252.94;7357978;19;20107;-55
2023/03/02 08:54:30;;;;;;;0.00;0.00;;;;;;;9.58;60.74;102276.53;7354532;19;20069;-56
2023/03/02 08:56:56;;;;;;;0.00;0.00;;;;;;;9.62;60.95;102275.66;7348013;19;20504;-56
2023/03/02 08:59:21;;;;;;;0.00;0.00;;;;;;;9.59;60.94;102266.97;7354055;19;20014;-56
2023/03/02 09:01:47;;;;;;;0.00;0.00;;;;;;;9.68;60.48;102286.97;7355013;19;20521;-54
2023/03/02 09:04:13;;;;;;;0.00;0.00;;;;;;;9.68;60.75;102284.38;7349440;19;20014;-56
2023/03/02 09:06:41;;;;;;;0.00;0.00;;;;;;;9.37;60.68;102226.81;7350976;19;20348;-54
2023/03/02 09:09:08;;;;;;;0.10;0.10;;;;;;;9.70;60.55;102287.88;7350658;19;20044;-55
2023/03/02 09:11:33;;;;;;;0.00;0.00;;;;;;;9.65;60.62;102273.94;7348515;19;20014;-56
2023/03/02 09:13:59;;;;;;;0.00;0.00;;;;;;;9.76;60.93;102299.22;7349534;19;20014;-56
2023/03/02 09:16:24;;;;;;;0.00;0.00;;;;;;;9.73;60.90;102294.00;7347650;19;20015;-57
2023/03/02 09:18:51;;;;;;;0.00;0.00;;;;;;;9.85;60.95;102303.63;7346760;19;20014;-56
2023/03/02 09:21:16;;;;;;;0.10;0.10;;;;;;;9.91;60.99;102308.88;7349548;19;20049;-56
2023/03/02 09:23:42;;;;;;;0.00;0.00;;;;;;;9.97;60.57;102308.91;7347568;19;20854;-56
2023/03/02 09:26:08;;;;;;;0.00;0.00;;;;;;;10.02;60.80;102312.41;7350589;19;20007;-56
2023/03/02 09:28:35;;;;;;;0.10;0.10;;;;;;;10.04;60.81;102309.84;7352217;19;20025;-55
2023/03/02 09:31:03;;;;;;;0.00;0.00;;;;;;;10.08;61.09;102315.06;7330294;19;20405;-56
2023/03/02 09:33:29;;;;;;;0.00;0.00;;;;;;;10.07;60.97;102310.72;7344151;19;20007;-55
2023/03/02 09:35:54;;;;;;;0.00;0.00;;;;;;;10.05;60.91;102317.66;7343784;19;20035;-56
2023/03/02 09:38:20;;;;;;;0.00;0.00;;;;;;;10.04;60.74;102325.50;7352352;19;20842;-56
2023/03/02 09:40:50;;;;;;;0.00;0.00;;;;;;;10.03;61.17;102319.38;7352763;19;20024;-55
2023/03/02 09:43:31;;;;;;;0.00;0.00;;;;;;;10.02;61.13;102325.47;7326415;19;20043;-56
2023/03/02 09:46:15;;;;;;;0.00;0.00;;;;;;;10.02;60.92;102322.84;7344723;19;20040;-56
2023/03/02 09:49:05;;;;;;;0.00;0.00;;;;;;;10.02;61.29;102312.41;7344878;19;20610;-56
2023/03/02 09:51:56;;;;;;;0.10;0.10;;;;;;;9.93;61.29;102288.00;7342834;19;20082;-54
2023/03/02 09:54:25;;;;;;;0.00;0.00;;;;;;;9.95;61.99;102300.22;7242427;19;2004525;-54
2023/03/02 09:56:56;;;;;;;0.10;0.10;;;;;;;10.08;61.93;102307.22;7348269;19;20022;-55
2023/03/02 09:59:46;;;;;;;0.00;0.00;;;;;;;10.14;61.78;102302.06;7346990;19;20010;-56
2023/03/02 10:02:17;;;;;;;0.00;0.00;;;;;;;10.20;62.23;102296.00;7347619;19;20007;-56
2023/03/02 10:04:47;;;;;;;0.00;0.00;;;;;;;10.32;62.13;102301.28;7348191;19;20077;-56
2023/03/02 10:07:18;;;;;;;0.00;0.00;;;;;;;10.47;62.46;102297.84;7346710;19;20020;-55
2023/03/02 10:09:43;;;;;;;0.00;0.00;;;;;;;10.60;62.45;102291.81;7348669;19;20010;-56
2023/03/02 10:12:54;;;;;;;0.00;0.00;;;;;;;10.88;61.35;102299.69;7349214;19;20021;-55
2023/03/02 10:15:27;;;;;;;0.00;0.00;;;;;;;11.11;61.84;102295.38;7240793;19;2004168;-56
2023/03/02 10:18:02;;;;;;;0.00;0.00;;;;;;;11.00;61.78;102241.31;7345338;19;20011;-56
2023/03/02 10:20:42;;;;;;;0.10;0.10;;;;;;;11.62;60.49;102304.06;7341615;19;20039;-55
2023/03/02 10:23:30;;;;;;;0.00;0.00;;;;;;;11.81;60.46;102301.41;7346181;19;20018;-56
2023/03/02 10:26:30;;;;;;;0.10;0.10;;;;;;;11.97;59.59;102308.41;7346468;19;20876;-57
2023/03/02 10:29:22;;;;;;;0.00;0.00;;;;;;;12.09;59.37;102295.25;7243897;19;2004404;-57
2023/03/02 10:31:56;;;;;;;0.00;0.00;;;;;;;12.13;58.94;102297.00;7345280;19;20010;-56
2023/03/02 10:34:26;;;;;;;0.10;0.10;;;;;;;12.26;59.25;102287.34;7349299;19;20257;-56
2023/03/02 10:36:52;;;;;;;0.10;0.10;;;;;;;12.52;59.35;102286.34;7345827;19;21145;-57
2023/03/02 10:39:17;;;;;;;0.10;0.10;;;;;;;12.90;58.99;102301.84;7346739;19;20021;-57
2023/03/02 10:41:51;;;;;;;0.10;0.10;;;;;;;13.34;58.79;102301.53;7348540;19;20015;-56
2023/03/02 10:44:49;;;;;;;0.10;0.10;;;;;;;13.91;59.99;102306.25;7344744;19;20006;-56
2023/03/02 10:47:24;;;;;;;0.10;0.10;;;;;;;14.32;57.68;102297.00;7244979;19;2004290;-58
2023/03/02 10:49:50;;;;;;;0.10;0.10;;;;;;;14.62;55.74;102291.38;7345557;19;20025;-58
2023/03/02 10:52:26;;;;;;;0.00;0.00;;;;;;;14.99;54.91;102299.56;7349230;19;20015;-57
2023/03/02 10:55:12;;;;;;;0.10;0.10;;;;;;;15.42;55.98;102300.66;7351476;19;20015;-57
2023/03/02 10:57:45;;;;;;;0.10;0.10;;;;;;;15.68;54.43;102298.44;7356177;19;20010;-61
2023/03/02 11:00:22;;;;;;;0.10;0.10;;;;;;;15.98;54.30;102298.75;7353833;19;20017;-60
2023/03/02 11:02:52;;;;;;;0.05;0.05;;;;;;;16.12;52.82;102291.47;7366634;19;20006;-60
2023/03/02 11:05:37;;;;;;;0.10;0.10;;;;;;;16.27;53.23;102298.16;7360372;19;20010;-60
2023/03/02 11:08:04;;;;;;;0.00;0.00;;;;;;;16.24;51.40;102304.38;7362493;19;20104;-61
2023/03/02 11:10:38;;;;;;;0.10;0.10;;;;;;;16.24;50.19;102292.97;7353810;19;20018;-59
2023/03/02 11:13:17;;;;;;;0.00;0.00;;;;;;;16.16;50.98;102295.75;7357696;19;20002;-61
2023/03/02 11:15:58;;;;;;;0.00;0.00;;;;;;;16.01;51.29;102294.28;7357622;19;20010;-60
2023/03/02 11:18:26;;;;;;;0.00;0.00;;;;;;;15.85;50.46;102295.50;7354664;19;20098;-61
2023/03/02 11:20:57;;;;;;;0.10;0.10;;;;;;;15.72;50.14;102299.28;7357611;19;20027;-60
2023/03/02 11:23:35;;;;;;;0.00;0.00;;;;;;;15.58;50.29;102302.13;7351973;19;20721;-60
2023/03/02 11:26:11;;;;;;;0.08;0.08;;;;;;;15.31;50.02;102280.66;7359175;19;20019;-60
2023/03/02 11:28:46;;;;;;;0.00;0.00;;;;;;;15.29;50.34;102306.09;7353517;19;20014;-60
2023/03/02 11:31:43;;;;;;;0.00;0.00;;;;;;;15.14;50.94;102297.59;7359289;19;20022;-60
2023/03/02 11:34:34;;;;;;;0.10;0.10;;;;;;;14.97;50.96;102297.88;7255020;19;2004335;-60
2023/03/02 11:37:23;;;;;;;0.00;0.00;;;;;;;14.83;51.30;102302.47;7355738;19;20014;-60
2023/03/02 11:40:03;;;;;;;0.10;0.10;;;;;;;14.76;51.60;102299.94;7350333;19;20023;-60